Wind Surf — C6IO6 — position and weather

sailwx.info

Track history (hours):
 
Tides and Currents Weather Stations Pressure Air Temp Water Temp Dewpoint Dewpoint Depression Visibility Wind Speed Wind Dir Waves Ship Positions

Wind Surf

Operator: Holland America Line

Last reported at 2017-Apr-22 15:29 UTC. Time now 2017-Jun-27 22:39 UTC.
Position N 41°21' E 002°11'.
Warning: this ship's position is months out of date.

Date/timePositionNaut miles runAvg speedWind from/ knotsBaromVisibWave heightAir tempDewpointWater temp
2017-Apr-22 15:29N 41°21' E 002°11'1 0.3
2017-Apr-22 12:10N 41°22' E 002°11'0 0.0
2017-Apr-22 11:58N 41°22' E 002°11'0 0.0
2017-Apr-22 10:58N 41°22' E 002°11'73 2.2
2017-Apr-21 01:24N 40°21' E 001°19'510.3
2017-Apr-21 00:55N 40°16' E 001°21'610.2
2017-Apr-21 00:17N 40°09' E 001°22'410.1
2017-Apr-20 23:53N 40°06' E 001°24'410.1
2017-Apr-20 23:30N 40°02' E 001°25'510.0
2017-Apr-20 23:00N 39°57' E 001°26'1110.3
2017-Apr-20 21:56N 39°46' E 001°29'510.5
2017-Apr-20 21:29N 39°41' E 001°31'810.5
2017-Apr-20 20:45N 39°34' E 001°33'510.4
2017-Apr-20 20:15N 39°29' E 001°34'310.5
2017-Apr-20 20:01N 39°26' E 001°35'711.1
2017-Apr-20 19:23N 39°20' E 001°37'711.4
2017-Apr-20 18:45N 39°12' E 001°39'311.6
2017-Apr-20 18:30N 39°10' E 001°40'711.6
2017-Apr-20 17:52N 39°02' E 001°41'410.6
2017-Apr-20 17:30N 38°59' E 001°39'510.6
2017-Apr-20 17:00N 38°56' E 001°34'4 8.9
2017-Apr-20 16:30N 38°54' E 001°28'116 5.2
2017-Apr-19 18:04N 37°38' W 000°22'1 9.2
2017-Apr-19 17:55N 37°37' W 000°24'5 9.4
2017-Apr-19 17:24N 37°35' W 000°29'4 9.4
2017-Apr-19 16:56N 37°32' W 000°33'7 9.1
2017-Apr-19 16:13N 37°31' W 000°42'2 9.5
2017-Apr-19 16:00N 37°31' W 000°44'4 8.9
2017-Apr-19 15:30N 37°31' W 000°50'90 5.1
2017-Apr-18 21:59N 36°26' W 002°07'1010.4
2017-Apr-18 21:03N 36°21' W 002°18'1 9.0
2017-Apr-18 20:56N 36°21' W 002°19'128 2.8
2017-Apr-16 23:17N 36°14' W 004°57'2 6.9
2017-Apr-16 22:58N 36°13' W 004°60'3 6.7
2017-Apr-16 22:30N 36°11' W 005°03'3 6.7
2017-Apr-16 22:00N 36°09' W 005°06'3 6.7
2017-Apr-16 21:30N 36°07' W 005°09'4 8.2
2017-Apr-16 21:00N 36°04' W 005°13'4 8.8
2017-Apr-16 20:30N 36°02' W 005°17'4 8.9
2017-Apr-16 20:00N 35°59' W 005°22'4 8.5
2017-Apr-16 19:30N 35°58' W 005°27'4 8.3
2017-Apr-16 19:00N 35°56' W 005°32'5 8.6
2017-Apr-16 18:28N 35°54' W 005°37'5 9.6
2017-Apr-16 17:55N 35°53' W 005°43'91 4.2
2017-Apr-15 20:24N 36°10' W 007°33'510.4
2017-Apr-15 19:56N 36°12' W 007°39'810.3
2017-Apr-15 19:12N 36°14' W 007°48'310.4
2017-Apr-15 18:54N 36°14' W 007°52'710.5
2017-Apr-15 18:13N 36°16' W 008°01'210.6
2017-Apr-15 18:00N 36°17' W 008°03'2010.6
2017-Apr-15 16:07N 36°22' W 008°27'210.6
2017-Apr-15 15:53N 36°23' W 008°30'410.6
2017-Apr-15 15:31N 36°24' W 008°35'510.6
2017-Apr-15 15:00N 36°25' W 008°41'510.6
2017-Apr-15 14:31N 36°27' W 008°47'1310.6
2017-Apr-15 13:17N 36°30' W 009°03'510.6
2017-Apr-15 12:51N 36°31' W 009°09'411.0
2017-Apr-15 12:30N 36°32' W 009°13'510.5
2017-Apr-15 11:59N 36°34' W 009°19'1910.6
2017-Apr-15 10:10N 36°49' W 009°35'210.5
2017-Apr-15 10:01N 36°51' W 009°35'510.6
2017-Apr-15 09:31N 36°56' W 009°37'1910.7
2017-Apr-15 07:46N 37°15' W 009°35'2310.7
2017-Apr-15 05:34N 37°38' W 009°31'210.6
2017-Apr-15 05:20N 37°40' W 009°31'410.8
2017-Apr-15 05:00N 37°44' W 009°30'510.8
2017-Apr-15 04:30N 37°49' W 009°29'611.1
2017-Apr-15 04:00N 37°55' W 009°28'611.2
2017-Apr-15 03:31N 38°00' W 009°27'611.3
2017-Apr-15 03:01N 38°06' W 009°26'611.1
2017-Apr-15 02:31N 38°11' W 009°26'511.0
2017-Apr-15 02:01N 38°17' W 009°26'611.1
2017-Apr-15 01:31N 38°22' W 009°25'610.9
2017-Apr-15 01:00N 38°28' W 009°24'611.2
2017-Apr-15 00:30N 38°33' W 009°24'511.0
2017-Apr-15 00:01N 38°38' W 009°21'612.2
2017-Apr-14 23:30N 38°41' W 009°14'510.5
2017-Apr-14 23:01N 38°42' W 009°08'1 0.6
2017-Apr-14 21:56N 38°43' W 009°07'0 0.0
2017-Apr-14 21:26N 38°43' W 009°07'0 0.0
2017-Apr-14 20:50N 38°43' W 009°07'0 0.0
2017-Apr-14 20:26N 38°43' W 009°07'0 0.0
2017-Apr-14 18:38N 38°43' W 009°07'0 0.0
2017-Apr-14 16:11N 38°43' W 009°07'0 0.0
2017-Apr-14 15:41N 38°43' W 009°07'0 0.0
2017-Apr-14 13:53N 38°43' W 009°07'0 0.0
2017-Apr-14 12:35N 38°43' W 009°07'0 0.0
2017-Apr-14 12:29N 38°43' W 009°07'0 0.0
2017-Apr-14 10:44N 38°43' W 009°07'0 0.0
2017-Apr-14 06:19N 38°43' W 009°07'0 0.0
2017-Apr-13 22:39N 38°43' W 009°07'0 0.0
2017-Apr-13 22:29N 38°43' W 009°07'1 1.9
2017-Apr-13 22:00N 38°42' W 009°08'5 9.1
2017-Apr-13 21:30N 38°41' W 009°14'4 7.2
2017-Apr-13 21:00N 38°40' W 009°18'5 9.3
2017-Apr-13 20:30N 38°37' W 009°23'5 9.9
2017-Apr-13 20:00N 38°36' W 009°29'5 9.8
2017-Apr-13 19:30N 38°34' W 009°34'5 9.9
2017-Apr-13 19:00N 38°33' W 009°40'510.3
2017-Apr-13 18:30N 38°31' W 009°47'5 9.9
2017-Apr-13 18:00N 38°29' W 009°53'5 9.6
2017-Apr-13 17:30N 38°28' W 009°59'  
Track history (hours):
 
Tides and Currents Weather Stations Pressure Air Temp Water Temp Dewpoint Dewpoint Depression Visibility Wind Speed Wind Dir Waves Ship Positions

Wind Surf

Operator: Holland America Line

Last reported at 2017-Apr-22 15:29 UTC. Time now 2017-Jun-27 22:39 UTC.
Position N 41°21' E 002°11'.
Warning: this ship's position is months out of date.

Date/timePositionNaut miles runAvg speedWind from/ knotsBaromVisibWave heightAir tempDewpointWater temp
2017-Apr-22 15:29N 41°21' E 002°11'1 0.3
2017-Apr-22 12:10N 41°22' E 002°11'0 0.0
2017-Apr-22 11:58N 41°22' E 002°11'0 0.0
2017-Apr-22 10:58N 41°22' E 002°11'73 2.2
2017-Apr-21 01:24N 40°21' E 001°19'510.3
2017-Apr-21 00:55N 40°16' E 001°21'610.2
2017-Apr-21 00:17N 40°09' E 001°22'410.1
2017-Apr-20 23:53N 40°06' E 001°24'410.1
2017-Apr-20 23:30N 40°02' E 001°25'510.0
2017-Apr-20 23:00N 39°57' E 001°26'1110.3
2017-Apr-20 21:56N 39°46' E 001°29'510.5
2017-Apr-20 21:29N 39°41' E 001°31'810.5
2017-Apr-20 20:45N 39°34' E 001°33'510.4
2017-Apr-20 20:15N 39°29' E 001°34'310.5
2017-Apr-20 20:01N 39°26' E 001°35'711.1
2017-Apr-20 19:23N 39°20' E 001°37'711.4
2017-Apr-20 18:45N 39°12' E 001°39'311.6
2017-Apr-20 18:30N 39°10' E 001°40'711.6
2017-Apr-20 17:52N 39°02' E 001°41'410.6
2017-Apr-20 17:30N 38°59' E 001°39'510.6
2017-Apr-20 17:00N 38°56' E 001°34'4 8.9
2017-Apr-20 16:30N 38°54' E 001°28'116 5.2
2017-Apr-19 18:04N 37°38' W 000°22'1 9.2
2017-Apr-19 17:55N 37°37' W 000°24'5 9.4
2017-Apr-19 17:24N 37°35' W 000°29'4 9.4
2017-Apr-19 16:56N 37°32' W 000°33'7 9.1
2017-Apr-19 16:13N 37°31' W 000°42'2 9.5
2017-Apr-19 16:00N 37°31' W 000°44'4 8.9
2017-Apr-19 15:30N 37°31' W 000°50'90 5.1
2017-Apr-18 21:59N 36°26' W 002°07'1010.4
2017-Apr-18 21:03N 36°21' W 002°18'1 9.0
2017-Apr-18 20:56N 36°21' W 002°19'128 2.8
2017-Apr-16 23:17N 36°14' W 004°57'2 6.9
2017-Apr-16 22:58N 36°13' W 004°60'3 6.7
2017-Apr-16 22:30N 36°11' W 005°03'3 6.7
2017-Apr-16 22:00N 36°09' W 005°06'3 6.7
2017-Apr-16 21:30N 36°07' W 005°09'4 8.2
2017-Apr-16 21:00N 36°04' W 005°13'4 8.8
2017-Apr-16 20:30N 36°02' W 005°17'4 8.9
2017-Apr-16 20:00N 35°59' W 005°22'4 8.5
2017-Apr-16 19:30N 35°58' W 005°27'4 8.3
2017-Apr-16 19:00N 35°56' W 005°32'5 8.6
2017-Apr-16 18:28N 35°54' W 005°37'5 9.6
2017-Apr-16 17:55N 35°53' W 005°43'91 4.2
2017-Apr-15 20:24N 36°10' W 007°33'510.4
2017-Apr-15 19:56N 36°12' W 007°39'810.3
2017-Apr-15 19:12N 36°14' W 007°48'310.4
2017-Apr-15 18:54N 36°14' W 007°52'710.5
2017-Apr-15 18:13N 36°16' W 008°01'210.6
2017-Apr-15 18:00N 36°17' W 008°03'2010.6
2017-Apr-15 16:07N 36°22' W 008°27'210.6
2017-Apr-15 15:53N 36°23' W 008°30'410.6
2017-Apr-15 15:31N 36°24' W 008°35'510.6
2017-Apr-15 15:00N 36°25' W 008°41'510.6
2017-Apr-15 14:31N 36°27' W 008°47'1310.6
2017-Apr-15 13:17N 36°30' W 009°03'510.6
2017-Apr-15 12:51N 36°31' W 009°09'411.0
2017-Apr-15 12:30N 36°32' W 009°13'510.5
2017-Apr-15 11:59N 36°34' W 009°19'1910.6
2017-Apr-15 10:10N 36°49' W 009°35'210.5
2017-Apr-15 10:01N 36°51' W 009°35'510.6
2017-Apr-15 09:31N 36°56' W 009°37'1910.7
2017-Apr-15 07:46N 37°15' W 009°35'2310.7
2017-Apr-15 05:34N 37°38' W 009°31'210.6
2017-Apr-15 05:20N 37°40' W 009°31'410.8
2017-Apr-15 05:00N 37°44' W 009°30'510.8
2017-Apr-15 04:30N 37°49' W 009°29'611.1
2017-Apr-15 04:00N 37°55' W 009°28'611.2
2017-Apr-15 03:31N 38°00' W 009°27'611.3
2017-Apr-15 03:01N 38°06' W 009°26'611.1
2017-Apr-15 02:31N 38°11' W 009°26'511.0
2017-Apr-15 02:01N 38°17' W 009°26'611.1
2017-Apr-15 01:31N 38°22' W 009°25'610.9
2017-Apr-15 01:00N 38°28' W 009°24'611.2
2017-Apr-15 00:30N 38°33' W 009°24'511.0
2017-Apr-15 00:01N 38°38' W 009°21'612.2
2017-Apr-14 23:30N 38°41' W 009°14'510.5
2017-Apr-14 23:01N 38°42' W 009°08'1 0.6
2017-Apr-14 21:56N 38°43' W 009°07'0 0.0
2017-Apr-14 21:26N 38°43' W 009°07'0 0.0
2017-Apr-14 20:50N 38°43' W 009°07'0 0.0
2017-Apr-14 20:26N 38°43' W 009°07'0 0.0
2017-Apr-14 18:38N 38°43' W 009°07'0 0.0
2017-Apr-14 16:11N 38°43' W 009°07'0 0.0
2017-Apr-14 15:41N 38°43' W 009°07'0 0.0
2017-Apr-14 13:53N 38°43' W 009°07'0 0.0
2017-Apr-14 12:35N 38°43' W 009°07'0 0.0
2017-Apr-14 12:29N 38°43' W 009°07'0 0.0
2017-Apr-14 10:44N 38°43' W 009°07'0 0.0
2017-Apr-14 06:19N 38°43' W 009°07'0 0.0
2017-Apr-13 22:39N 38°43' W 009°07'0 0.0
2017-Apr-13 22:29N 38°43' W 009°07'1 1.9
2017-Apr-13 22:00N 38°42' W 009°08'5 9.1
2017-Apr-13 21:30N 38°41' W 009°14'4 7.2
2017-Apr-13 21:00N 38°40' W 009°18'5 9.3
2017-Apr-13 20:30N 38°37' W 009°23'5 9.9
2017-Apr-13 20:00N 38°36' W 009°29'5 9.8
2017-Apr-13 19:30N 38°34' W 009°34'5 9.9
2017-Apr-13 19:00N 38°33' W 009°40'510.3
2017-Apr-13 18:30N 38°31' W 009°47'5 9.9
2017-Apr-13 18:00N 38°29' W 009°53'5 9.6
2017-Apr-13 17:30N 38°28' W 009°59'  

Dump ship's entire track history